Time;durP1;ratioP1;P1;durP2;ratioP2;P2;SDS_P1;SDS_P2;PMS_P1;PMS_P2;Temp;Humidity;BMP_temperature;BMP_pressure;BME280_temperature;BME280_humidity;BME280_pressure;Samples;Min_cycle;Max_cycle;Signal;HPM_P1;HPM_P2
2023/08/28 00:01:21;;;;;;;5.30;4.80;;;;;;;18.85;73.76;99790.29;109031;1276;22202;-77
2023/08/28 00:03:57;;;;;;;5.60;4.80;;;;;;;18.83;73.71;99789.23;109241;1275;22273;-76
2023/08/28 00:06:27;;;;;;;5.90;5.00;;;;;;;18.84;73.76;99792.52;108901;1278;22889;-79
2023/08/28 00:09:04;;;;;;;9.30;4.80;;;;;;;18.84;73.82;99791.77;108818;1280;23635;-78
2023/08/28 00:11:54;;;;;;;5.70;4.90;;;;;;;18.81;73.74;99785.46;109707;1268;23013;-77
2023/08/28 00:14:24;;;;;;;6.00;5.20;;;;;;;18.81;73.67;99788.63;110217;1265;22389;-77
2023/08/28 00:17:11;;;;;;;6.70;5.40;;;;;;;18.81;73.81;99792.92;110396;1264;21954;-77
2023/08/28 00:19:43;;;;;;;5.30;4.90;;;;;;;18.80;73.83;99794.39;109655;1270;21986;-77
2023/08/28 00:22:21;;;;;;;5.80;5.20;;;;;;;18.80;73.87;99798.24;109305;1273;22374;-78
2023/08/28 00:24:59;;;;;;;5.50;4.70;;;;;;;18.80;73.75;99794.75;109570;1269;23718;-78
2023/08/28 00:27:29;;;;;;;6.10;5.00;;;;;;;18.80;73.81;99796.86;109274;1275;22062;-78
2023/08/28 00:30:11;;;;;;;5.20;4.80;;;;;;;18.79;73.84;99803.77;109095;1275;22021;-79
2023/08/28 00:32:49;;;;;;;6.50;5.90;;;;;;;18.79;73.76;99805.58;109231;1275;21983;-78
2023/08/28 00:35:27;;;;;;;5.40;5.00;;;;;;;18.78;73.79;99800.00;109352;1274;21985;-76
2023/08/28 00:38:04;;;;;;;5.10;4.70;;;;;;;18.77;73.88;99799.90;109305;1270;21980;-77
2023/08/28 00:40:49;;;;;;;5.80;5.30;;;;;;;18.77;73.77;99796.59;109621;1266;21989;-78
2023/08/28 00:43:32;;;;;;;6.90;5.10;;;;;;;18.77;73.70;99795.66;109945;1266;23062;-78
2023/08/28 00:46:16;;;;;;;5.80;4.50;;;;;;;18.77;73.77;99796.20;110407;1260;21956;-77
2023/08/28 00:48:49;;;;;;;7.40;5.40;;;;;;;18.78;73.69;99801.42;110683;1260;22431;-78
2023/08/28 00:51:25;;;;;;;5.70;4.90;;;;;;;18.76;73.52;99790.65;110684;1260;21983;-79
2023/08/28 00:54:03;;;;;;;5.60;5.00;;;;;;;18.74;73.52;99784.75;109743;1266;21974;-79
2023/08/28 00:56:40;;;;;;;5.60;5.10;;;;;;;18.77;73.43;99783.84;109824;1266;22158;-79
2023/08/28 00:59:16;;;;;;;5.90;5.30;;;;;;;18.74;73.52;99787.06;109986;1266;22985;-79
2023/08/28 01:01:58;;;;;;;6.30;5.60;;;;;;;18.73;73.50;99789.81;110093;1266;23450;-79
2023/08/28 01:04:31;;;;;;;5.90;5.20;;;;;;;18.72;73.57;99797.27;110098;1266;23716;-78
2023/08/28 01:07:39;;;;;;;5.00;4.50;;;;;;;18.68;73.64;99798.64;110127;1266;23752;-78
2023/08/28 01:10:28;;;;;;;5.60;5.10;;;;;;;18.75;73.75;99812.23;110136;1267;23631;-78
2023/08/28 01:13:54;;;;;;;5.90;5.40;;;;;;;18.75;73.77;99810.59;110641;1260;21976;-78
2023/08/28 01:16:30;;;;;;;6.80;4.60;;;;;;;18.76;73.75;99806.70;109448;1267;23016;-79
2023/08/28 01:19:01;;;;;;;6.50;5.00;;;;;;;18.78;73.62;99803.36;109044;1267;21996;-78
2023/08/28 01:21:51;;;;;;;5.60;4.50;;;;;;;18.80;73.33;99811.48;108929;1276;23055;-79
2023/08/28 01:24:30;;;;;;;5.60;5.10;;;;;;;18.79;73.35;99810.36;108932;1276;23042;-78
2023/08/28 01:27:22;;;;;;;5.70;4.70;;;;;;;18.76;73.28;99815.54;108525;1281;24537;-78
2023/08/28 01:30:08;;;;;;;5.40;4.80;;;;;;;18.75;73.16;99815.07;108389;1285;24420;-78
2023/08/28 01:32:48;;;;;;;6.10;5.50;;;;;;;18.74;73.19;99813.50;108492;1285;22580;-78
2023/08/28 01:35:36;;;;;;;6.10;5.60;;;;;;;18.73;73.18;99812.20;108199;1288;22415;-78
2023/08/28 01:38:32;;;;;;;5.30;4.80;;;;;;;18.71;73.24;99807.95;108185;1288;23758;-78
2023/08/28 01:41:10;;;;;;;7.20;5.60;;;;;;;18.69;73.35;99815.64;108165;1286;21999;-79
2023/08/28 01:43:50;;;;;;;6.20;5.00;;;;;;;18.69;73.36;99822.33;108441;1277;21986;-78
2023/08/28 01:46:25;;;;;;;7.80;6.40;;;;;;;18.68;73.32;99820.14;109034;1274;21989;-81
2023/08/28 01:49:08;;;;;;;6.50;5.90;;;;;;;18.66;73.34;99816.42;109161;1274;23640;-78
2023/08/28 01:51:39;;;;;;;6.40;5.60;;;;;;;18.61;73.40;99803.09;109240;1274;23152;-78
2023/08/28 01:54:13;;;;;;;6.60;6.00;;;;;;;18.63;73.47;99803.50;109410;1267;22100;-77
2023/08/28 01:56:53;;;;;;;7.80;6.50;;;;;;;18.68;73.45;99811.19;109724;1267;21985;-78
2023/08/28 01:59:29;;;;;;;8.20;6.70;;;;;;;18.70;73.46;99823.73;109784;1267;22004;-77
2023/08/28 02:02:09;;;;;;;7.00;6.40;;;;;;;18.69;73.34;99833.98;109918;1260;23618;-79
2023/08/28 02:04:41;;;;;;;7.60;6.30;;;;;;;18.67;73.45;99838.37;110066;1264;22030;-76
2023/08/28 02:07:20;;;;;;;6.90;6.20;;;;;;;18.68;73.46;99845.58;110418;1263;23110;-78
2023/08/28 02:10:03;;;;;;;9.00;7.10;;;;;;;18.66;73.53;99851.84;110477;1263;22009;-77
2023/08/28 02:12:50;;;;;;;7.30;6.70;;;;;;;18.66;73.59;99849.41;109674;1269;22008;-78
2023/08/28 02:15:28;;;;;;;8.70;6.50;;;;;;;18.66;73.65;99843.41;109930;1269;22445;-78
2023/08/28 02:18:02;;;;;;;8.20;7.50;;;;;;;18.66;73.74;99843.56;109736;1269;21962;-78
2023/08/28 02:20:32;;;;;;;7.60;6.90;;;;;;;18.67;73.67;99847.71;109265;1274;22041;-78
2023/08/28 02:23:32;;;;;;;7.10;6.60;;;;;;;18.66;73.68;99852.55;109371;1270;21993;-79
2023/08/28 02:26:11;;;;;;;7.60;7.00;;;;;;;18.62;73.78;99852.20;109173;1271;21984;-78
2023/08/28 02:29:00;;;;;;;7.70;7.10;;;;;;;18.61;73.68;99854.39;109267;1273;21964;-79
2023/08/28 02:31:39;;;;;;;8.10;7.40;;;;;;;18.58;73.86;99861.86;109731;1268;21990;-78
2023/08/28 02:34:12;;;;;;;8.60;7.70;;;;;;;18.58;73.95;99867.48;109769;1269;23054;-78
2023/08/28 02:36:46;;;;;;;8.50;7.70;;;;;;;18.59;73.98;99862.33;109674;1268;24418;-79
2023/08/28 02:39:20;;;;;;;7.80;7.10;;;;;;;18.59;73.93;99861.80;109582;1268;22526;-77
2023/08/28 02:41:59;;;;;;;7.90;7.30;;;;;;;18.55;73.97;99858.01;109836;1268;21972;-78
2023/08/28 02:44:50;;;;;;;8.80;7.60;;;;;;;18.54;74.07;99855.84;109899;1264;23742;-78
2023/08/28 02:47:31;;;;;;;8.60;7.80;;;;;;;18.52;74.08;99868.46;110196;1266;22158;-77
2023/08/28 02:50:08;;;;;;;8.10;7.30;;;;;;;18.52;74.14;99878.30;110154;1266;21998;-78
2023/08/28 02:52:44;;;;;;;8.10;7.40;;;;;;;18.54;74.02;99884.02;109250;1270;22017;-79
2023/08/28 02:55:16;;;;;;;8.90;6.60;;;;;;;18.54;74.02;99886.66;109385;1271;23735;-78
2023/08/28 02:57:53;;;;;;;8.70;7.80;;;;;;;18.54;74.01;99886.87;109619;1271;22226;-78
2023/08/28 03:00:29;;;;;;;8.00;7.30;;;;;;;18.51;74.03;99891.80;109591;1271;21986;-78
2023/08/28 03:03:02;;;;;;;8.60;7.60;;;;;;;18.50;73.99;99892.58;104642;1276;5938652;-80
2023/08/28 03:05:48;;;;;;;9.10;8.30;;;;;;;18.50;74.10;99887.33;109006;1275;22945;-79
2023/08/28 03:08:23;;;;;;;8.80;7.60;;;;;;;18.49;74.02;99881.21;109150;1275;21985;-77
2023/08/28 03:10:58;;;;;;;10.80;8.50;;;;;;;18.49;74.01;99870.14;109081;1274;22759;-78
2023/08/28 03:13:30;;;;;;;9.60;8.80;;;;;;;18.49;73.92;99863.64;109328;1275;21995;-78
2023/08/28 03:16:05;;;;;;;10.10;8.40;;;;;;;18.49;74.04;99865.70;109086;1274;22046;-78
2023/08/28 03:18:39;;;;;;;9.90;9.10;;;;;;;18.49;73.88;99870.14;109988;1269;22434;-78
2023/08/28 03:21:09;;;;;;;11.30;9.40;;;;;;;18.48;73.82;99878.87;109739;1267;23717;-78
2023/08/28 03:23:42;;;;;;;10.40;9.30;;;;;;;18.47;73.86;99878.35;109546;1269;23631;-79
2023/08/28 03:26:14;;;;;;;10.10;9.10;;;;;;;18.46;73.74;99870.73;109002;1274;23116;-77
2023/08/28 03:28:51;;;;;;;11.00;9.70;;;;;;;18.44;73.79;99866.85;109271;1272;21998;-79
2023/08/28 03:31:23;;;;;;;9.50;8.60;;;;;;;18.42;73.64;99868.08;110028;1266;23583;-78
2023/08/28 03:34:05;;;;;;;9.90;8.90;;;;;;;18.38;73.55;99871.69;110302;1254;23030;-78
2023/08/28 03:36:36;;;;;;;10.00;9.30;;;;;;;18.35;73.67;99867.38;110149;1265;22053;-78
2023/08/28 03:39:09;;;;;;;12.00;10.90;;;;;;;18.32;73.61;99863.33;110165;1266;21990;-79
2023/08/28 03:41:46;;;;;;;11.70;10.50;;;;;;;18.29;73.66;99869.19;110209;1265;21987;-78
2023/08/28 03:44:17;;;;;;;11.60;9.90;;;;;;;18.27;73.65;99876.78;110067;1260;22737;-79
2023/08/28 03:46:49;;;;;;;11.60;10.40;;;;;;;18.25;73.76;99870.42;110905;1259;22014;-78
2023/08/28 03:49:22;;;;;;;12.00;10.80;;;;;;;18.24;73.74;99875.59;110646;1259;22928;-77
2023/08/28 03:51:59;;;;;;;11.20;10.10;;;;;;;18.23;73.70;99877.13;110752;1259;22370;-79
2023/08/28 03:54:44;;;;;;;10.30;9.50;;;;;;;18.20;73.94;99879.05;110236;1265;23169;-79
2023/08/28 03:57:18;;;;;;;17.10;10.10;;;;;;;18.21;74.01;99891.50;109567;1270;23728;-79
2023/08/28 03:59:47;;;;;;;10.80;9.80;;;;;;;18.20;74.00;99898.96;109124;1274;21982;-83
2023/08/28 04:02:19;;;;;;;11.80;10.70;;;;;;;18.20;74.22;99906.77;109282;1273;21999;-79
2023/08/28 04:04:52;;;;;;;10.90;10.00;;;;;;;18.19;74.24;99911.89;109143;1274;23080;-79
2023/08/28 04:07:40;;;;;;;11.30;10.30;;;;;;;18.22;74.43;99918.23;109167;1274;23041;-76
2023/08/28 04:10:19;;;;;;;14.60;10.60;;;;;;;18.26;74.52;99920.55;108974;1277;22020;-78
2023/08/28 04:12:56;;;;;;;11.30;10.30;;;;;;;18.27;74.40;99923.59;108981;1273;21985;-77
2023/08/28 04:15:28;;;;;;;12.30;11.10;;;;;;;18.30;74.35;99927.27;109630;1269;23014;-77
2023/08/28 04:18:01;;;;;;;11.00;10.00;;;;;;;18.31;74.32;99925.74;109836;1269;23017;-77
2023/08/28 04:20:39;;;;;;;10.50;9.60;;;;;;;18.34;74.11;99924.16;109732;1261;21975;-77
2023/08/28 04:23:09;;;;;;;10.50;9.70;;;;;;;18.34;74.14;99924.68;109138;1274;23865;-77
2023/08/28 04:25:43;;;;;;;14.00;10.00;;;;;;;18.35;74.20;99924.54;109053;1274;23763;-78
2023/08/28 04:28:19;;;;;;;10.70;9.60;;;;;;;18.38;74.26;99923.33;109006;1274;22163;-78
2023/08/28 04:31:01;;;;;;;10.70;9.70;;;;;;;18.39;74.12;99922.89;108725;1280;21988;-79
2023/08/28 04:33:32;;;;;;;10.20;9.20;;;;;;;18.40;74.06;99917.33;108770;1280;22031;-78
2023/08/28 04:36:06;;;;;;;10.80;9.90;;;;;;;18.42;73.98;99911.41;108547;1283;21794;-78
2023/08/28 04:38:41;;;;;;;11.00;9.90;;;;;;;18.43;73.99;99905.33;108514;1283;21980;-79
2023/08/28 04:41:17;;;;;;;11.10;9.80;;;;;;;18.44;74.01;99901.23;108659;1281;22034;-79
2023/08/28 04:43:46;;;;;;;10.40;9.60;;;;;;;18.46;74.02;99909.83;108671;1279;21997;-78
2023/08/28 04:46:18;;;;;;;10.40;9.40;;;;;;;18.49;74.09;99917.32;108753;1278;21989;-79
2023/08/28 04:48:47;;;;;;;9.30;8.50;;;;;;;18.53;74.17;99917.92;109038;1273;24438;-79
2023/08/28 04:51:16;;;;;;;9.70;8.80;;;;;;;18.55;73.94;99918.79;109304;1272;22561;-79
2023/08/28 04:53:45;;;;;;;8.80;8.00;;;;;;;18.56;73.64;99924.04;109478;1268;23745;-78
2023/08/28 04:56:17;;;;;;;9.20;8.40;;;;;;;18.56;73.38;99934.76;110122;1264;21978;-78
2023/08/28 04:58:49;;;;;;;9.80;8.40;;;;;;;18.56;73.34;99940.59;109600;1271;21993;-78
2023/08/28 05:01:21;;;;;;;9.80;8.90;;;;;;;18.56;73.09;99937.57;109073;1276;23632;-78
2023/08/28 05:03:51;;;;;;;8.50;7.70;;;;;;;18.55;72.94;99938.17;109212;1272;22068;-79
2023/08/28 05:06:24;;;;;;;9.80;8.80;;;;;;;18.56;72.95;99941.14;109404;1271;23042;-78
2023/08/28 05:08:56;;;;;;;9.60;8.80;;;;;;;18.58;72.97;99941.65;109589;1270;21997;-78
2023/08/28 05:11:29;;;;;;;9.20;8.00;;;;;;;18.60;72.94;99946.84;109369;1271;22188;-79
2023/08/28 05:14:06;;;;;;;11.20;8.40;;;;;;;18.61;72.92;99944.44;109397;1271;21974;-79
2023/08/28 05:16:41;;;;;;;10.50;8.70;;;;;;;18.61;72.90;99939.83;109544;1266;22017;-78
2023/08/28 05:19:14;;;;;;;9.20;8.30;;;;;;;18.64;72.87;99944.58;110457;1260;21978;-78
2023/08/28 05:21:53;;;;;;;12.70;8.20;;;;;;;18.64;72.70;99944.75;110785;1259;21965;-79
2023/08/28 05:24:23;;;;;;;9.60;8.70;;;;;;;18.64;72.66;99941.77;110678;1260;21961;-80
2023/08/28 05:26:55;;;;;;;8.70;7.60;;;;;;;18.66;72.76;99947.17;110135;1265;22257;-79
2023/08/28 05:29:25;;;;;;;9.20;8.10;;;;;;;18.74;72.90;99941.51;110340;1252;21991;-79
2023/08/28 05:31:54;;;;;;;9.20;8.40;;;;;;;18.81;72.77;99939.92;110055;1262;23764;-78
2023/08/28 05:34:36;;;;;;;10.60;8.40;;;;;;;18.85;72.44;99939.38;110304;1265;23511;-77
2023/08/28 05:37:11;;;;;;;9.40;8.50;;;;;;;18.86;72.03;99938.98;110180;1264;21979;-79
2023/08/28 05:39:51;;;;;;;9.80;7.90;;;;;;;18.86;71.94;99938.25;110082;1265;21973;-77
2023/08/28 05:42:22;;;;;;;9.70;7.60;;;;;;;18.87;71.67;99929.94;109632;1270;23746;-78
2023/08/28 05:44:57;;;;;;;9.40;7.60;;;;;;;18.87;71.55;99923.23;109346;1272;23663;-80
2023/08/28 05:47:54;;;;;;;9.50;8.60;;;;;;;18.87;71.34;99924.62;109433;1271;22173;-79
2023/08/28 05:50:27;;;;;;;11.20;8.30;;;;;;;18.91;71.36;99925.92;109796;1271;22000;-79
2023/08/28 05:53:07;;;;;;;9.40;8.60;;;;;;;18.97;71.56;99924.60;110192;1266;22104;-79
2023/08/28 05:55:39;;;;;;;12.00;8.50;;;;;;;19.04;71.42;99927.55;110097;1266;21981;-78
2023/08/28 05:58:14;;;;;;;;;;;;;;;19.06;71.03;99925.98;110141;1265;22074;-78
2023/08/28 06:00:48;;;;;;;9.30;8.40;;;;;;;18.96;70.94;99929.05;109655;1270;21989;-77
2023/08/28 06:03:22;;;;;;;9.60;8.70;;;;;;;18.96;70.77;99930.46;109549;1270;23750;-77
2023/08/28 06:05:58;;;;;;;9.40;7.40;;;;;;;18.95;70.74;99934.91;109205;1274;22737;-78
2023/08/28 06:08:33;;;;;;;7.90;7.20;;;;;;;18.96;70.73;99932.52;109435;1270;22044;-78
2023/08/28 06:11:11;;;;;;;8.30;7.60;;;;;;;18.97;70.46;99930.04;109600;1270;21986;-77
2023/08/28 06:13:43;;;;;;;8.90;8.00;;;;;;;18.97;70.40;99933.70;109651;1270;21982;-77
2023/08/28 06:16:22;;;;;;;9.60;8.00;;;;;;;18.97;70.32;99937.25;109469;1270;21983;-79
2023/08/28 06:19:03;;;;;;;8.40;7.60;;;;;;;18.97;70.24;99937.07;109588;1266;23685;-77
2023/08/28 06:21:36;;;;;;;11.50;7.90;;;;;;;18.96;70.24;99936.95;109827;1266;22088;-77
2023/08/28 06:24:08;;;;;;;8.70;7.90;;;;;;;18.98;70.11;99936.95;110470;1259;23727;-77
2023/08/28 06:26:42;;;;;;;12.50;7.20;;;;;;;18.99;70.12;99935.85;110654;1260;21972;-78
2023/08/28 06:29:27;;;;;;;7.80;7.10;;;;;;;19.00;70.16;99930.12;110821;1259;21974;-78
2023/08/28 06:32:06;;;;;;;9.50;7.60;;;;;;;19.01;70.00;99930.89;110609;1260;21976;-79
2023/08/28 06:34:38;;;;;;;10.50;7.20;;;;;;;19.02;69.84;99933.33;110684;1260;21970;-78
2023/08/28 06:37:15;;;;;;;9.30;6.70;;;;;;;19.03;69.85;99934.98;110701;1260;22764;-78
2023/08/28 06:39:50;;;;;;;8.60;7.50;;;;;;;19.03;69.61;99935.89;110757;1259;22892;-79
2023/08/28 06:42:31;;;;;;;10.80;7.00;;;;;;;19.04;69.81;99934.92;110683;1259;23039;-78
2023/08/28 06:45:17;;;;;;;8.10;7.30;;;;;;;19.05;69.57;99936.95;110689;1260;22303;-77
2023/08/28 06:47:49;;;;;;;7.60;6.90;;;;;;;19.00;69.34;99936.14;110757;1260;22033;-78
2023/08/28 06:50:32;;;;;;;8.30;7.60;;;;;;;18.97;69.50;99935.11;110806;1260;22626;-78
2023/08/28 06:53:15;;;;;;;7.50;6.70;;;;;;;18.99;69.80;99934.62;110598;1260;21977;-78
2023/08/28 06:55:57;;;;;;;9.70;6.60;;;;;;;19.05;69.87;99930.42;110993;1260;23748;-78
2023/08/28 06:58:41;;;;;;;7.90;7.00;;;;;;;19.13;69.93;99928.56;110570;1260;22942;-78
2023/08/28 07:01:25;;;;;;;7.90;7.10;;;;;;;19.23;69.94;99932.31;110789;1256;21957;-77
2023/08/28 07:04:17;;;;;;;8.30;6.70;;;;;;;19.33;69.61;99933.86;110775;1260;23092;-78
2023/08/28 07:07:04;;;;;;;;;;;;;;;19.38;69.16;99942.63;110713;1260;23670;-79
2023/08/28 07:09:44;;;;;;;7.40;6.80;;;;;;;19.32;69.17;99947.67;110713;1260;21959;-80
2023/08/28 07:12:26;;;;;;;7.80;7.00;;;;;;;19.36;68.76;99949.66;110630;1260;22004;-78
2023/08/28 07:15:25;;;;;;;7.70;6.50;;;;;;;19.37;68.50;99950.24;110689;1246;23014;-78
2023/08/28 07:18:01;;;;;;;8.60;6.50;;;;;;;19.36;68.21;99957.45;110888;1260;23709;-80
2023/08/28 07:20:49;;;;;;;6.90;6.30;;;;;;;19.38;68.30;99957.26;110711;1260;22267;-79
2023/08/28 07:23:41;;;;;;;7.40;6.50;;;;;;;19.38;68.57;99964.81;110745;1259;23608;-77
2023/08/28 07:26:25;;;;;;;9.00;6.70;;;;;;;19.42;68.54;99967.71;110830;1260;21963;-80
2023/08/28 07:29:08;;;;;;;8.00;7.00;;;;;;;19.46;68.55;99965.96;110180;1266;21982;-76
2023/08/28 07:31:42;;;;;;;7.30;6.20;;;;;;;19.54;68.61;99954.23;110154;1266;21984;-77
2023/08/28 07:34:20;;;;;;;10.00;5.90;;;;;;;19.59;68.34;99943.35;110058;1266;21975;-76
2023/08/28 07:36:54;;;;;;;10.20;6.50;;;;;;;19.64;68.38;99939.10;110285;1266;22985;-76
2023/08/28 07:39:28;;;;;;;7.40;6.70;;;;;;;19.72;68.13;99940.53;110043;1266;21979;-77
2023/08/28 07:42:08;;;;;;;10.50;6.20;;;;;;;19.74;67.81;99947.42;110336;1265;22067;-78
2023/08/28 07:44:39;;;;;;;11.10;6.20;;;;;;;19.75;67.44;99942.94;110304;1266;22201;-78
2023/08/28 07:47:16;;;;;;;8.00;6.50;;;;;;;19.78;67.53;99937.92;109515;1265;21984;-77
2023/08/28 07:49:47;;;;;;;7.30;6.70;;;;;;;19.79;67.21;99933.27;109940;1265;23596;-75
2023/08/28 07:52:21;;;;;;;9.70;5.80;;;;;;;19.80;67.16;99938.52;110152;1265;21947;-76
2023/08/28 07:55:00;;;;;;;9.60;6.30;;;;;;;19.86;67.33;99944.64;110235;1265;21992;-77
2023/08/28 07:57:57;;;;;;;8.00;7.00;;;;;;;19.92;67.22;99950.05;109866;1268;23708;-77
2023/08/28 08:00:47;;;;;;;6.90;6.30;;;;;;;20.01;67.17;99950.52;109723;1268;21963;-76
2023/08/28 08:03:33;;;;;;;6.80;6.20;;;;;;;20.06;66.73;99950.27;109341;1273;21977;-81
2023/08/28 08:06:10;;;;;;;6.80;5.40;;;;;;;20.14;66.57;99951.56;109825;1268;21982;-76
2023/08/28 08:08:42;;;;;;;11.60;5.90;;;;;;;20.23;66.51;99948.83;109224;1273;22999;-77
2023/08/28 08:11:17;;;;;;;6.70;6.00;;;;;;;20.34;66.36;99938.91;109480;1273;22104;-78
2023/08/28 08:13:53;;;;;;;12.00;6.00;;;;;;;20.46;66.20;99937.33;109354;1273;21974;-75
2023/08/28 08:16:25;;;;;;;8.40;5.50;;;;;;;20.59;65.80;99943.16;109849;1269;22007;-76
2023/08/28 08:19:13;;;;;;;6.50;5.90;;;;;;;20.68;65.27;99948.58;109801;1269;22156;-77
2023/08/28 08:21:42;;;;;;;7.10;5.70;;;;;;;20.70;64.21;99953.89;109736;1264;23809;-76
2023/08/28 08:24:14;;;;;;;8.40;5.50;;;;;;;20.65;63.59;99955.92;110157;1265;22120;-76
2023/08/28 08:26:50;;;;;;;6.80;6.10;;;;;;;20.56;63.42;99955.40;110367;1265;23704;-78
2023/08/28 08:29:40;;;;;;;6.80;6.00;;;;;;;20.52;63.30;99971.66;110101;1265;21996;-75
2023/08/28 08:32:25;;;;;;;6.80;6.10;;;;;;;20.47;63.35;99991.49;109401;1270;21987;-77
2023/08/28 08:34:58;;;;;;;7.80;5.60;;;;;;;20.47;63.28;100002.15;110062;1265;21972;-76
2023/08/28 08:37:39;;;;;;;7.10;6.40;;;;;;;20.46;63.29;100007.16;110167;1266;23694;-77
2023/08/28 08:40:24;;;;;;;8.70;5.40;;;;;;;20.45;63.26;100020.84;110359;1265;22203;-75
2023/08/28 08:42:59;;;;;;;6.50;5.80;;;;;;;20.41;63.06;100033.03;109818;1265;22925;-76
2023/08/28 08:45:37;;;;;;;6.80;5.70;;;;;;;20.37;63.08;100042.95;110049;1265;22745;-76
2023/08/28 08:48:08;;;;;;;6.90;5.80;;;;;;;20.36;63.15;100051.36;110101;1265;22002;-77
2023/08/28 08:50:40;;;;;;;7.50;5.80;;;;;;;20.38;63.24;100053.41;110236;1260;21962;-78
2023/08/28 08:53:47;;;;;;;6.00;5.30;;;;;;;20.40;63.15;100051.84;110768;1259;23109;-77
2023/08/28 08:56:25;;;;;;;7.00;6.00;;;;;;;20.39;63.20;100057.46;110225;1266;23802;-78
2023/08/28 08:58:56;;;;;;;9.70;6.80;;;;;;;20.44;63.29;100056.13;109569;1271;22001;-76
2023/08/28 09:01:33;;;;;;;7.20;6.50;;;;;;;20.52;63.18;100054.92;108901;1277;22002;-77
2023/08/28 09:04:08;;;;;;;8.20;6.80;;;;;;;20.60;63.34;100053.75;108646;1280;22087;-77
2023/08/28 09:06:42;;;;;;;7.80;6.30;;;;;;;20.73;63.35;100054.40;108598;1280;23718;-76
2023/08/28 09:09:22;;;;;;;9.00;5.90;;;;;;;20.86;62.92;100057.72;108503;1282;23658;-76
2023/08/28 09:11:56;;;;;;;7.50;5.60;;;;;;;20.93;62.51;100052.89;108573;1281;21998;-77
2023/08/28 09:14:30;;;;;;;15.30;5.30;;;;;;;20.98;62.30;100037.80;108321;1286;22083;-77
2023/08/28 09:17:00;;;;;;;6.30;5.80;;;;;;;20.98;61.90;100020.07;108280;1286;23698;-77
2023/08/28 09:19:34;;;;;;;8.80;5.80;;;;;;;20.95;61.71;100010.42;108466;1277;22018;-78
2023/08/28 09:22:08;;;;;;;11.70;6.60;;;;;;;20.92;61.64;100002.61;108676;1276;23642;-76
2023/08/28 09:24:54;;;;;;;7.60;6.00;;;;;;;20.91;61.87;99995.44;109057;1274;21990;-77
2023/08/28 09:27:25;;;;;;;7.30;6.00;;;;;;;20.97;62.19;99990.84;109073;1274;21989;-77
2023/08/28 09:29:56;;;;;;;7.20;6.60;;;;;;;21.08;62.22;99977.67;109014;1275;21979;-78
2023/08/28 09:32:52;;;;;;;7.50;6.40;;;;;;;21.18;61.96;99968.45;109155;1268;22161;-76
2023/08/28 09:35:43;;;;;;;8.80;6.10;;;;;;;21.22;61.23;99967.08;110164;1266;21983;-77
2023/08/28 09:38:15;;;;;;;17.10;8.80;;;;;;;21.24;60.99;99959.06;109858;1266;23779;-77
2023/08/28 09:40:56;;;;;;;9.70;7.30;;;;;;;21.27;60.77;99955.66;109610;1267;21971;-77
2023/08/28 09:43:41;;;;;;;6.90;6.30;;;;;;;21.27;60.66;99958.76;109729;1268;21961;-77
2023/08/28 09:46:28;;;;;;;10.00;7.40;;;;;;;21.28;60.69;99955.00;109919;1268;22001;-77
2023/08/28 09:49:04;;;;;;;10.80;9.00;;;;;;;21.26;60.58;99958.52;110142;1265;22177;-77
2023/08/28 09:51:49;;;;;;;9.10;8.20;;;;;;;21.26;60.68;99956.05;110221;1265;21975;-77
2023/08/28 09:54:24;;;;;;;9.10;8.40;;;;;;;21.28;60.89;99950.19;110239;1265;22845;-77
2023/08/28 09:56:57;;;;;;;12.20;8.60;;;;;;;21.34;60.79;99939.27;110109;1261;23648;-76
2023/08/28 09:59:32;;;;;;;10.00;8.70;;;;;;;21.41;60.66;99928.03;110158;1265;21967;-76
2023/08/28 10:02:03;;;;;;;8.50;7.80;;;;;;;21.43;60.43;99927.64;110624;1259;23615;-77
2023/08/28 10:04:52;;;;;;;9.70;7.70;;;;;;;21.49;60.39;99936.52;110787;1260;21961;-76
2023/08/28 10:07:26;;;;;;;8.60;7.90;;;;;;;21.56;59.97;99935.91;110562;1259;21964;-76
2023/08/28 10:09:59;;;;;;;9.30;8.40;;;;;;;21.56;59.59;99930.39;110707;1259;22475;-76
2023/08/28 10:12:35;;;;;;;10.20;9.00;;;;;;;21.51;59.27;99922.91;110192;1266;21972;-76
2023/08/28 10:15:08;;;;;;;9.30;8.50;;;;;;;21.42;59.28;99920.46;109969;1266;22264;-77
2023/08/28 10:17:42;;;;;;;9.00;8.20;;;;;;;21.39;59.83;99921.30;109588;1272;21992;-77
2023/08/28 10:20:22;;;;;;;10.10;9.30;;;;;;;21.39;60.02;99919.31;108858;1278;23034;-76
2023/08/28 10:23:15;;;;;;;9.70;8.80;;;;;;;21.40;60.22;99914.15;108864;1270;22006;-76
2023/08/28 10:25:55;;;;;;;8.90;8.10;;;;;;;21.41;60.39;99920.58;108889;1278;22000;-77
2023/08/28 10:28:42;;;;;;;12.50;9.80;;;;;;;21.52;60.67;99938.78;108654;1282;23126;-80
2023/08/28 10:31:27;;;;;;;11.50;9.30;;;;;;;21.66;60.90;99956.22;108855;1279;23021;-79
2023/08/28 10:34:05;;;;;;;9.40;8.60;;;;;;;21.84;60.59;99965.20;108883;1279;23734;-79
2023/08/28 10:36:38;;;;;;;10.10;9.10;;;;;;;21.98;59.94;99967.48;109178;1275;21993;-79
2023/08/28 10:39:35;;;;;;;9.80;8.90;;;;;;;22.16;59.80;99977.68;109480;1271;21974;-78
2023/08/28 10:42:20;;;;;;;11.70;8.30;;;;;;;22.59;60.45;99983.85;109665;1271;22186;-78
2023/08/28 10:44:56;;;;;;;10.90;7.90;;;;;;;23.07;59.16;99987.83;109750;1270;23605;-77
2023/08/28 10:47:34;;;;;;;8.80;7.30;;;;;;;23.30;56.97;99982.98;109931;1266;23048;-77
2023/08/28 10:50:06;;;;;;;14.30;7.90;;;;;;;23.36;55.92;99978.08;110327;1264;23727;-77
2023/08/28 10:52:35;;;;;;;9.00;8.20;;;;;;;23.33;54.94;99972.00;110448;1263;21990;-78
2023/08/28 10:55:06;;;;;;;9.80;8.80;;;;;;;23.25;54.99;99964.17;110500;1260;21950;-78
2023/08/28 10:57:39;;;;;;;8.70;7.90;;;;;;;23.21;55.12;99957.98;110709;1260;24012;-78
2023/08/28 11:00:18;;;;;;;8.00;7.30;;;;;;;23.17;55.20;99953.51;110683;1260;21957;-78
2023/08/28 11:03:09;;;;;;;9.20;8.40;;;;;;;23.18;55.42;99959.61;110680;1260;21960;-77
2023/08/28 11:05:41;;;;;;;9.60;8.80;;;;;;;23.17;55.32;99962.42;110691;1259;22889;-77
2023/08/28 11:08:14;;;;;;;8.30;6.90;;;;;;;23.21;55.35;99960.91;110551;1263;21964;-78
2023/08/28 11:11:12;;;;;;;9.40;7.60;;;;;;;23.23;55.03;99967.52;109661;1269;22466;-77
2023/08/28 11:14:01;;;;;;;7.30;6.70;;;;;;;23.24;54.88;99974.20;109795;1269;21977;-78
2023/08/28 11:16:31;;;;;;;8.40;7.70;;;;;;;23.23;54.64;99970.66;108931;1275;21998;-77
2023/08/28 11:19:00;;;;;;;8.70;7.90;;;;;;;23.19;54.35;99962.95;109098;1275;21983;-78
2023/08/28 11:21:39;;;;;;;9.90;8.20;;;;;;;23.17;54.30;99958.35;109074;1275;21986;-78
2023/08/28 11:24:26;;;;;;;9.20;7.00;;;;;;;23.12;54.18;99962.13;109176;1275;21980;-78
2023/08/28 11:26:58;;;;;;;7.50;6.80;;;;;;;23.08;54.32;99961.48;109466;1272;21979;-78
2023/08/28 11:29:30;;;;;;;12.70;7.50;;;;;;;23.07;54.28;99960.95;109794;1266;22857;-77
2023/08/28 11:32:08;;;;;;;8.60;7.70;;;;;;;23.01;54.34;99954.38;110125;1266;23679;-77
2023/08/28 11:34:43;;;;;;;11.90;7.90;;;;;;;22.93;54.39;99953.17;110246;1260;24299;-76
2023/08/28 11:37:34;;;;;;;10.30;7.80;;;;;;;22.88;54.47;99955.76;110699;1260;22060;-78
2023/08/28 11:40:08;;;;;;;8.60;7.70;;;;;;;22.81;54.44;99955.52;110688;1259;22010;-79
2023/08/28 11:42:39;;;;;;;9.30;8.30;;;;;;;22.72;54.46;99950.16;110803;1260;22796;-78
2023/08/28 11:45:09;;;;;;;11.50;9.00;;;;;;;22.62;54.67;99945.83;110270;1266;22016;-79
2023/08/28 11:47:39;;;;;;;10.60;8.10;;;;;;;22.55;54.99;99940.77;110160;1266;22479;-79
2023/08/28 11:50:09;;;;;;;12.90;8.00;;;;;;;22.51;55.24;99936.71;110128;1265;21975;-81
2023/08/28 11:52:40;;;;;;;8.10;7.40;;;;;;;22.46;55.20;99933.12;110027;1266;23732;-80
2023/08/28 11:55:10;;;;;;;9.50;7.20;;;;;;;22.39;55.21;99927.94;110312;1266;22821;-80
2023/08/28 11:57:43;;;;;;;;;;;;;;;22.34;55.31;99923.11;110310;1266;22127;-81
2023/08/28 12:00:14;;;;;;;7.00;6.30;;;;;;;22.23;55.82;99920.70;110049;1266;23335;-80
2023/08/28 12:02:49;;;;;;;8.00;7.10;;;;;;;22.22;55.76;99915.48;110349;1256;21977;-78
2023/08/28 12:05:19;;;;;;;10.30;7.50;;;;;;;22.18;55.72;99911.06;110625;1260;22701;-80
2023/08/28 12:07:49;;;;;;;9.80;7.40;;;;;;;22.15;56.01;99908.99;110329;1266;23096;-78
2023/08/28 12:10:21;;;;;;;10.80;6.40;;;;;;;22.20;56.42;99908.00;110224;1265;21963;-78